createdAt,value
2019-01-11T00:07:42.051Z,48.20
2019-01-11T00:17:44.154Z,48.27
2019-01-11T00:27:46.326Z,46.03
2019-01-11T00:37:48.238Z,43.67
2019-01-11T00:47:50.266Z,47.17
2019-01-11T00:57:51.786Z,46.33
2019-01-11T01:07:53.796Z,47.10
2019-01-11T01:17:55.506Z,44.17
2019-01-11T01:28:01.111Z,44.97
2019-01-11T01:38:03.497Z,47.23
2019-01-11T01:48:05.430Z,53.20
2019-01-11T01:58:07.137Z,48.03
2019-01-11T02:08:09.761Z,48.13
2019-01-11T02:18:11.668Z,51.00
2019-01-11T02:28:17.365Z,53.57
2019-01-11T02:38:18.865Z,51.07
2019-01-11T02:48:20.569Z,44.97
2019-01-11T02:58:22.174Z,41.77
2019-01-11T03:08:23.771Z,39.13
2019-01-11T03:18:25.689Z,49.03
2019-01-11T03:28:28.309Z,37.97
2019-01-11T03:38:29.811Z,35.17
2019-01-11T03:48:31.894Z,36.47
2019-01-11T03:58:33.366Z,37.43
2019-01-11T04:08:36.254Z,42.53
2019-01-11T04:18:38.658Z,42.73
2019-01-11T04:28:43.449Z,36.43
2019-01-11T04:38:44.926Z,40.20
2019-01-11T04:48:46.658Z,36.70
2019-01-11T04:58:48.153Z,31.37
2019-01-11T05:08:49.653Z,33.53
2019-01-11T05:18:51.458Z,35.83
2019-01-11T05:28:54.355Z,40.93
2019-01-11T05:38:55.890Z,46.27
2019-01-11T05:48:57.493Z,40.87
2019-01-11T05:59:01.043Z,44.57
2019-01-11T06:09:05.133Z,45.57
2019-01-11T06:19:06.904Z,43.70
2019-01-11T06:29:08.627Z,45.70
2019-01-11T06:39:10.313Z,53.07
2019-01-11T06:49:12.325Z,58.00
2019-01-11T06:59:14.108Z,58.00
2019-01-11T07:09:15.737Z,47.37
2019-01-11T07:19:17.437Z,50.40
2019-01-11T07:29:19.140Z,50.47
2019-01-11T07:39:22.519Z,56.30
2019-01-11T07:49:24.294Z,60.17
2019-01-11T07:59:26.114Z,77.47
2019-01-11T08:09:27.700Z,61.97
2019-01-11T08:19:29.715Z,69.73
2019-01-11T08:29:34.489Z,54.87
2019-01-11T08:39:36.088Z,40.07
2019-01-11T08:49:37.905Z,48.07
2019-01-11T08:59:39.498Z,47.47
2019-01-11T09:09:40.997Z,50.23
2019-01-11T09:19:42.805Z,42.43
2019-01-11T09:29:45.548Z,38.23
2019-01-11T09:39:47.335Z,49.87
2019-01-11T09:49:49.348Z,44.40
2019-01-11T09:59:50.849Z,42.27
2019-01-11T10:09:52.453Z,41.87
2019-01-11T10:19:55.275Z,29.17
2019-01-11T10:29:56.989Z,36.53
2019-01-11T10:39:58.488Z,45.37
2019-01-11T10:50:00.806Z,34.50
2019-01-11T11:00:10.705Z,36.77
2019-01-11T11:10:14.838Z,41.53
2019-01-11T11:20:18.403Z,42.47
2019-01-11T11:30:24.928Z,50.20
2019-01-11T11:40:26.852Z,47.87
2019-01-11T11:50:28.853Z,52.33
2019-01-11T12:00:30.458Z,54.23
2019-01-11T12:10:31.961Z,44.83
2019-01-11T12:20:34.284Z,57.97
2019-01-11T12:30:37.960Z,35.80
2019-01-11T12:40:39.634Z,46.60
2019-01-11T12:50:41.538Z,58.30
2019-01-11T13:00:43.110Z,58.40
2019-01-11T13:10:44.638Z,57.00
2019-01-11T13:20:46.446Z,58.47
2019-01-11T13:30:49.068Z,52.60
2019-01-11T13:40:50.676Z,73.67
2019-01-11T13:50:52.691Z,69.23
2019-01-11T14:00:54.317Z,56.63
2019-01-11T14:10:56.001Z,55.60
2019-01-11T14:20:57.800Z,49.93
2019-01-11T14:30:59.614Z,58.67
2019-01-11T14:41:01.311Z,46.87
2019-01-11T14:51:03.729Z,59.80
2019-01-11T15:01:05.229Z,49.13
2019-01-11T15:11:06.834Z,62.30
2019-01-11T15:21:08.741Z,65.03
2019-01-11T15:31:14.129Z,56.63
2019-01-11T15:41:15.837Z,52.07
2019-01-11T15:51:18.675Z,61.00
2019-01-11T16:01:20.848Z,61.07
2019-01-11T16:11:42.666Z,62.47
2019-01-11T16:21:44.399Z,51.77
2019-01-11T16:31:46.002Z,55.77
2019-01-11T16:41:48.052Z,58.37
2019-01-11T16:51:49.892Z,56.60
2019-01-11T17:01:51.497Z,48.50
2019-01-11T17:11:53.091Z,51.43
2019-01-11T17:21:54.799Z,42.80
2019-01-11T17:31:58.653Z,47.03
2019-01-11T17:42:00.152Z,92.30
2019-01-11T17:52:01.964Z,63.30
2019-01-11T18:02:03.658Z,51.03
2019-01-11T18:12:05.469Z,30.70
2019-01-11T18:22:07.277Z,36.03
2019-01-11T18:32:09.292Z,24.53
2019-01-11T18:42:13.180Z,28.40
2019-01-11T18:52:15.295Z,33.27
2019-01-11T19:02:18.438Z,25.30
2019-01-11T19:12:19.995Z,28.90
2019-01-11T19:22:21.806Z,25.80
2019-01-11T19:32:26.690Z,20.00
2019-01-11T19:42:28.282Z,23.00
2019-01-11T19:52:30.397Z,14.37
2019-01-11T20:02:32.315Z,27.77
2019-01-11T20:12:34.014Z,22.27
2019-01-11T20:22:36.251Z,21.43
2019-01-11T20:32:44.387Z,24.57
2019-01-11T20:42:46.807Z,34.40
2019-01-11T20:52:48.820Z,23.63
2019-01-11T21:02:50.493Z,23.87
2019-01-11T21:12:54.346Z,18.70
2019-01-11T21:22:55.881Z,19.13
2019-01-11T21:33:01.099Z,14.03
2019-01-11T21:43:03.383Z,16.90
2019-01-11T21:53:05.524Z,21.77
2019-01-11T22:03:07.508Z,19.73
2019-01-11T22:13:09.214Z,19.57
2019-01-11T22:23:11.121Z,23.93
2019-01-11T22:33:16.614Z,21.63
2019-01-11T22:43:18.318Z,22.43
2019-01-11T22:53:20.021Z,15.70
2019-01-11T23:03:35.960Z,12.37
2019-01-11T23:13:37.571Z,10.53
2019-01-11T23:23:39.172Z,10.70
2019-01-11T23:33:44.657Z,9.87
2019-01-11T23:43:46.256Z,13.70
2019-01-11T23:53:47.860Z,12.43
